Time;durP1;ratioP1;P1;durP2;ratioP2;P2;SDS_P1;SDS_P2;PMS_P1;PMS_P2;Temp;Humidity;BMP_temperature;BMP_pressure;BME280_temperature;BME280_humidity;BME280_pressure;Samples;Min_cycle;Max_cycle;Signal;HPM_P1;HPM_P2
2023/10/06 09:21:14;;;;;;;3.00;1.27;;;19.20;99.90;;;;;;4613645;23;20608;-79
2023/10/06 09:23:41;;;;;;;5.35;1.20;;;19.10;99.90;;;;;;5016109;28;20240;-77
2023/10/06 09:26:11;;;;;;;2.33;1.25;;;19.10;99.90;;;;;;5011437;28;20206;-75
2023/10/06 09:28:50;;;;;;;7.82;1.38;;;19.10;99.90;;;;;;5015563;28;20245;-76
2023/10/06 09:31:18;;;;;;;3.42;0.93;;;19.10;99.90;;;;;;4996162;28;20202;-68
2023/10/06 09:33:48;;;;;;;6.13;1.60;;;19.00;99.90;;;;;;4996032;28;20249;-73
2023/10/06 09:36:21;;;;;;;4.03;1.20;;;19.10;99.90;;;;;;4996049;28;20238;-72
2023/10/06 09:38:48;;;;;;;2.72;1.08;;;19.30;99.90;;;;;;4995736;28;20702;-69
2023/10/06 09:41:26;;;;;;;4.30;1.23;;;19.40;99.90;;;;;;4995982;28;20257;-74
2023/10/06 09:43:54;;;;;;;3.85;1.20;;;19.50;99.90;;;;;;4997562;28;20241;-69
2023/10/06 09:46:25;;;;;;;4.35;1.20;;;19.70;99.90;;;;;;5016429;28;20309;-69
2023/10/06 09:48:53;;;;;;;4.43;1.25;;;19.70;99.90;;;;;;5015478;28;20260;-73
2023/10/06 09:51:25;;;;;;;2.85;1.33;;;19.60;99.90;;;;;;5015856;28;20201;-74
2023/10/06 09:53:53;;;;;;;4.20;1.00;;;19.70;99.90;;;;;;5014468;28;20562;-72
2023/10/06 09:56:21;;;;;;;3.88;1.00;;;19.90;99.90;;;;;;4996025;28;20326;-76
2023/10/06 09:58:51;;;;;;;2.65;0.95;;;20.00;99.90;;;;;;4996041;28;20222;-77
2023/10/06 10:01:21;;;;;;;4.13;0.90;;;20.10;99.90;;;;;;4996273;28;20241;-84
2023/10/06 10:03:49;;;;;;;4.38;1.02;;;20.10;99.90;;;;;;4995754;28;20206;-77
2023/10/06 10:06:21;;;;;;;1.88;0.77;;;20.20;99.90;;;;;;4995883;28;20199;-75
2023/10/06 10:08:51;;;;;;;3.63;1.20;;;19.90;99.90;;;;;;4995649;28;20252;-80
2023/10/06 10:11:28;;;;;;;3.78;1.02;;;19.90;99.90;;;;;;4995357;28;20266;-80
2023/10/06 10:14:24;;;;;;;2.97;1.02;;;19.80;99.90;;;;;;4994958;28;20233;-81
2023/10/06 10:17:07;;;;;;;7.20;1.25;;;19.90;99.90;;;;;;4995333;28;20233;-76
2023/10/06 10:19:36;;;;;;;4.70;1.08;;;19.70;99.90;;;;;;4995492;28;20220;-76
2023/10/06 10:22:03;;;;;;;4.18;1.35;;;19.70;99.90;;;;;;4995112;28;20222;-81
2023/10/06 10:24:36;;;;;;;4.05;1.02;;;19.80;99.90;;;;;;4995141;28;20659;-76
2023/10/06 10:27:13;;;;;;;2.72;1.10;;;19.90;99.90;;;;;;4995075;28;20225;-84
2023/10/06 10:29:41;;;;;;;3.45;1.38;;;20.00;99.90;;;;;;4995168;28;20209;-78
2023/10/06 10:32:16;;;;;;;2.35;1.38;;;19.90;99.90;;;;;;4995319;28;20206;-74
2023/10/06 10:35:09;;;;;;;3.72;1.23;;;19.80;99.90;;;;;;4995000;28;20637;-75
2023/10/06 10:37:58;;;;;;;4.78;1.25;;;19.70;99.90;;;;;;4994879;28;20229;-72
2023/10/06 10:40:28;;;;;;;4.40;1.10;;;19.90;99.90;;;;;;5005481;28;20244;-77
2023/10/06 10:43:01;;;;;;;3.00;1.02;;;20.10;99.90;;;;;;5014707;28;20209;-78
2023/10/06 10:45:30;;;;;;;4.18;1.05;;;20.10;99.90;;;;;;4982604;28;20649;-81
2023/10/06 10:47:58;;;;;;;3.28;1.20;;;20.10;99.90;;;;;;4994720;28;20281;-74
2023/10/06 10:50:28;;;;;;;6.50;2.45;;;20.20;99.90;;;;;;4994608;28;20614;-82
2023/10/06 10:52:56;;;;;;;4.28;1.10;;;20.40;99.90;;;;;;4994589;28;20603;-84
2023/10/06 10:55:26;;;;;;;4.80;1.38;;;20.40;99.90;;;;;;4994981;28;20273;-78
2023/10/06 10:57:53;;;;;;;3.95;1.50;;;20.40;99.90;;;;;;4995291;28;20230;-76
2023/10/06 11:00:20;;;;;;;3.30;1.10;;;20.50;99.90;;;;;;4994430;28;20234;-82
2023/10/06 11:03:03;;;;;;;4.15;1.30;;;20.40;99.90;;;;;;4994584;28;20655;-84
2023/10/06 11:05:31;;;;;;;8.18;1.38;;;20.50;99.90;;;;;;4994789;28;20214;-72
2023/10/06 11:07:59;;;;;;;5.50;1.30;;;20.30;99.90;;;;;;4994295;28;20745;-73
2023/10/06 11:10:31;;;;;;;4.82;1.20;;;20.30;99.90;;;;;;4996251;28;20758;-76
2023/10/06 11:13:16;;;;;;;2.40;1.13;;;20.50;99.90;;;;;;4995323;28;20219;-82
2023/10/06 11:15:44;;;;;;;3.85;0.88;;;20.60;99.90;;;;;;4995435;28;20265;-74
2023/10/06 11:18:13;;;;;;;3.28;1.20;;;20.80;99.90;;;;;;4995066;28;20694;-83
2023/10/06 11:20:40;;;;;;;3.50;1.77;;;20.70;99.90;;;;;;4995133;28;20226;-72
2023/10/06 11:23:08;;;;;;;2.90;0.90;;;20.80;99.90;;;;;;4994338;28;20678;-82
2023/10/06 11:25:46;;;;;;;3.85;1.10;;;20.80;99.90;;;;;;4994599;28;20233;-78
2023/10/06 11:28:14;;;;;;;5.07;1.00;;;21.00;99.90;;;;;;4994532;28;20714;-85
2023/10/06 11:30:42;;;;;;;1.02;0.63;;;21.00;99.90;;;;;;4995035;28;20206;-78
2023/10/06 11:33:11;;;;;;;3.22;0.98;;;21.00;99.90;;;;;;4994653;28;20202;-79
2023/10/06 11:35:40;;;;;;;3.13;1.05;;;21.00;99.90;;;;;;4994498;28;20226;-83
2023/10/06 11:38:10;;;;;;;2.47;1.30;;;21.10;99.90;;;;;;4994308;28;20234;-84
2023/10/06 11:40:40;;;;;;;2.75;1.05;;;21.20;99.90;;;;;;4994413;28;20208;-76
2023/10/06 11:43:12;;;;;;;3.90;1.00;;;21.10;99.90;;;;;;4994512;28;20202;-82
2023/10/06 11:45:41;;;;;;;2.67;0.68;;;20.90;99.90;;;;;;4989397;28;20221;-75
2023/10/06 11:48:23;;;;;;;3.55;0.98;;;20.70;99.90;;;;;;4993622;28;20288;-71
2023/10/06 11:50:58;;;;;;;2.25;1.00;;;20.60;99.90;;;;;;4993762;28;20630;-71
2023/10/06 11:53:26;;;;;;;1.60;0.80;;;20.50;99.90;;;;;;4994004;28;20210;-76
2023/10/06 11:56:06;;;;;;;2.72;0.90;;;20.40;99.90;;;;;;4993729;28;20269;-69
2023/10/06 11:58:35;;;;;;;3.28;1.00;;;20.40;99.90;;;;;;4997758;28;20551;-68
2023/10/06 12:01:03;;;;;;;3.55;1.20;;;20.50;99.90;;;;;;5005958;28;20199;-69
2023/10/06 12:03:38;;;;;;;4.15;1.27;;;20.50;99.90;;;;;;5000729;28;20206;-70
2023/10/06 12:06:11;;;;;;;2.03;0.90;;;20.50;99.90;;;;;;4995539;28;20210;-70
2023/10/06 12:08:42;;;;;;;5.80;1.13;;;20.50;99.90;;;;;;4994590;28;20226;-70
2023/10/06 12:11:12;;;;;;;7.18;1.00;;;20.40;99.90;;;;;;4993775;28;20286;-69
2023/10/06 12:13:39;;;;;;;2.10;0.85;;;20.40;99.90;;;;;;4991765;28;20234;-77
2023/10/06 12:16:13;;;;;;;1.83;0.98;;;20.60;99.90;;;;;;4992861;28;20706;-75
2023/10/06 12:18:43;;;;;;;6.18;1.20;;;20.50;99.90;;;;;;4993081;28;20237;-68
2023/10/06 12:21:11;;;;;;;3.58;1.20;;;20.50;99.90;;;;;;5008183;28;20240;-72
2023/10/06 12:23:39;;;;;;;4.18;1.13;;;20.50;99.90;;;;;;5012981;28;20593;-69
2023/10/06 12:26:06;;;;;;;4.35;0.88;;;20.50;99.90;;;;;;4997193;28;20210;-73
2023/10/06 12:28:34;;;;;;;2.08;0.90;;;20.50;99.90;;;;;;4992411;28;20781;-72
2023/10/06 12:31:02;;;;;;;5.90;1.17;;;20.50;99.90;;;;;;4989954;28;20614;-73
2023/10/06 12:33:29;;;;;;;2.33;1.05;;;20.50;99.90;;;;;;4991926;28;20199;-74
2023/10/06 12:35:56;;;;;;;2.95;1.17;;;20.60;99.90;;;;;;4993214;28;20323;-74
2023/10/06 12:38:26;;;;;;;3.92;1.00;;;20.40;99.90;;;;;;4994927;28;20225;-74
2023/10/06 12:40:53;;;;;;;2.60;0.93;;;20.30;99.90;;;;;;4995474;28;20236;-74
2023/10/06 12:43:20;;;;;;;3.15;0.95;;;20.30;99.90;;;;;;4995580;28;20202;-71
2023/10/06 12:45:50;;;;;;;5.07;0.90;;;20.30;99.90;;;;;;4995704;28;20202;-75
2023/10/06 12:48:17;;;;;;;2.75;1.05;;;20.30;99.90;;;;;;4992568;28;20308;-72
2023/10/06 12:50:44;;;;;;;3.30;1.00;;;20.20;99.90;;;;;;4994785;28;20198;-73
2023/10/06 12:53:12;;;;;;;0.98;0.80;;;20.20;99.90;;;;;;4995196;28;20249;-73
2023/10/06 12:55:41;;;;;;;3.88;1.10;;;20.20;99.90;;;;;;4996742;28;20260;-75
2023/10/06 12:58:11;;;;;;;4.38;1.02;;;20.10;99.90;;;;;;4995376;28;20257;-74
2023/10/06 13:00:38;;;;;;;4.07;1.42;;;20.10;99.90;;;;;;4992205;28;20305;-73
2023/10/06 13:03:15;;;;;;;2.90;1.15;;;20.10;99.90;;;;;;4994117;28;20675;-72
2023/10/06 13:05:43;;;;;;;1.58;1.00;;;20.10;99.90;;;;;;4988866;28;20202;-72
2023/10/06 13:08:16;;;;;;;1.88;1.00;;;20.20;99.90;;;;;;4995052;28;20595;-73
2023/10/06 13:10:43;;;;;;;3.10;1.08;;;20.10;99.90;;;;;;4996076;28;20670;-74
2023/10/06 13:13:12;;;;;;;5.70;1.58;;;20.00;99.90;;;;;;4994697;28;20238;-74
2023/10/06 13:15:40;;;;;;;5.93;1.17;;;20.10;99.90;;;;;;4994290;28;20203;-77
2023/10/06 13:18:09;;;;;;;4.75;1.15;;;20.10;99.90;;;;;;4994326;28;20349;-74
2023/10/06 13:20:36;;;;;;;4.07;1.20;;;20.10;99.90;;;;;;4993720;28;20548;-75
2023/10/06 13:23:04;;;;;;;3.55;1.30;;;20.20;99.90;;;;;;4992572;28;20655;-75
2023/10/06 13:25:32;;;;;;;2.42;0.88;;;20.20;99.90;;;;;;4995492;28;20226;-75
2023/10/06 13:28:00;;;;;;;3.42;1.20;;;20.20;99.90;;;;;;4994431;28;20273;-74
2023/10/06 13:30:32;;;;;;;5.47;1.55;;;20.10;99.90;;;;;;5013616;28;20195;-73
2023/10/06 13:33:00;;;;;;;2.38;1.10;;;20.20;99.90;;;;;;5017653;28;20214;-75
2023/10/06 13:35:28;;;;;;;3.78;1.42;;;20.20;99.90;;;;;;5017643;28;20201;-75
2023/10/06 13:37:57;;;;;;;6.43;1.60;;;20.20;99.90;;;;;;5017990;28;20241;-75
2023/10/06 13:40:24;;;;;;;2.40;0.82;;;20.20;99.90;;;;;;5011140;28;20216;-77
2023/10/06 13:42:52;;;;;;;2.35;0.98;;;20.20;99.90;;;;;;4997628;28;20242;-77
2023/10/06 13:45:22;;;;;;;3.65;1.42;;;20.30;99.90;;;;;;4997508;28;20417;-80
2023/10/06 13:47:52;;;;;;;2.53;0.95;;;20.40;99.90;;;;;;4997117;28;20234;-81
2023/10/06 13:50:19;;;;;;;3.88;1.13;;;20.40;99.90;;;;;;4996482;28;20210;-77
2023/10/06 13:52:49;;;;;;;3.15;1.08;;;20.30;99.90;;;;;;4996070;28;20241;-79
2023/10/06 13:55:17;;;;;;;6.95;1.10;;;20.40;99.90;;;;;;4995936;28;20290;-78
2023/10/06 13:57:45;;;;;;;4.63;1.38;;;20.40;99.90;;;;;;4996081;28;20237;-78
2023/10/06 14:00:21;;;;;;;3.67;1.35;;;20.40;99.90;;;;;;4995921;28;20305;-79
2023/10/06 14:02:49;;;;;;;3.95;0.95;;;20.40;99.90;;;;;;4995808;28;20209;-78
2023/10/06 14:05:16;;;;;;;4.10;0.88;;;20.40;99.90;;;;;;4995695;28;20675;-77
2023/10/06 14:07:44;;;;;;;2.70;1.17;;;20.50;99.90;;;;;;4995764;28;20258;-79
2023/10/06 14:10:21;;;;;;;3.92;1.20;;;20.50;99.90;;;;;;4995463;28;20206;-78
2023/10/06 14:12:54;;;;;;;4.78;1.10;;;20.50;99.90;;;;;;4995873;28;20206;-78
2023/10/06 14:15:30;;;;;;;4.65;1.27;;;20.40;99.90;;;;;;4996133;28;20206;-81
2023/10/06 14:17:58;;;;;;;2.55;1.10;;;20.50;99.90;;;;;;4995708;28;20246;-78
2023/10/06 14:20:27;;;;;;;3.90;1.20;;;20.40;99.90;;;;;;4995503;28;20249;-79
2023/10/06 14:22:56;;;;;;;4.97;1.05;;;20.40;99.90;;;;;;4995909;28;20216;-80
2023/10/06 14:25:26;;;;;;;3.60;0.98;;;20.40;99.90;;;;;;4995660;28;20245;-80
2023/10/06 14:27:54;;;;;;;5.95;1.25;;;20.30;99.90;;;;;;4995601;28;20222;-80
2023/10/06 14:30:21;;;;;;;5.25;1.20;;;20.10;99.90;;;;;;4995741;28;20614;-81
2023/10/06 14:33:13;;;;;;;3.45;1.38;;;20.00;99.90;;;;;;4995565;28;20206;-80
2023/10/06 14:35:52;;;;;;;3.83;1.33;;;20.00;99.90;;;;;;4995734;28;20299;-81
2023/10/06 14:46:39;;;;;;;4.30;1.10;;;20.10;99.90;;;;;;4995028;28;20213;-80
2023/10/06 14:49:12;;;;;;;4.80;1.33;;;20.10;99.90;;;;;;4995061;28;20257;-80
2023/10/06 14:51:40;;;;;;;2.00;0.95;;;20.10;99.90;;;;;;4994851;28;20206;-80
2023/10/06 14:54:07;;;;;;;5.00;1.17;;;20.00;99.90;;;;;;4995301;28;20301;-78
2023/10/06 14:56:36;;;;;;;3.72;1.48;;;20.10;99.90;;;;;;4995078;28;20206;-80
2023/10/06 14:59:04;;;;;;;3.45;1.10;;;20.00;99.90;;;;;;4994447;28;20277;-79
2023/10/06 15:01:31;;;;;;;4.25;1.13;;;20.00;99.90;;;;;;4994873;28;20214;-80
2023/10/06 15:03:59;;;;;;;2.50;1.15;;;20.10;99.90;;;;;;4994950;28;20631;-80
2023/10/06 15:06:26;;;;;;;3.13;1.02;;;20.20;99.90;;;;;;4994604;28;20342;-80
2023/10/06 15:08:54;;;;;;;1.92;0.98;;;20.20;99.90;;;;;;4994791;28;20257;-79
2023/10/06 15:11:21;;;;;;;3.10;1.40;;;20.20;99.90;;;;;;4994715;28;20206;-78
2023/10/06 15:13:50;;;;;;;2.78;1.08;;;20.20;99.90;;;;;;4994244;28;20245;-79
2023/10/06 15:16:18;;;;;;;3.75;1.17;;;20.10;99.90;;;;;;4994484;28;20285;-79
2023/10/06 15:18:47;;;;;;;5.22;1.38;;;20.20;99.90;;;;;;4994637;28;20725;-80
2023/10/06 15:21:14;;;;;;;2.78;1.25;;;20.20;99.90;;;;;;4993859;28;20268;-77
2023/10/06 15:23:42;;;;;;;4.00;1.05;;;20.20;99.90;;;;;;4994196;28;20249;-76
2023/10/06 15:26:11;;;;;;;2.67;1.10;;;20.10;99.90;;;;;;4994329;28;20245;-80
2023/10/06 15:28:38;;;;;;;2.85;1.30;;;20.00;99.90;;;;;;4994057;28;20560;-80
2023/10/06 15:31:06;;;;;;;5.47;1.10;;;20.00;99.90;;;;;;4994261;28;20289;-78
2023/10/06 15:33:34;;;;;;;4.00;1.00;;;19.90;99.90;;;;;;4994244;28;20206;-76
2023/10/06 15:36:02;;;;;;;2.67;0.98;;;19.90;99.90;;;;;;4994997;28;20238;-80
2023/10/06 15:38:30;;;;;;;3.63;0.93;;;19.80;99.90;;;;;;4994192;28;20270;-78
2023/10/06 15:41:07;;;;;;;4.97;1.02;;;19.90;99.90;;;;;;4994083;28;20210;-79
2023/10/06 15:43:35;;;;;;;1.95;0.98;;;19.90;99.90;;;;;;4994533;28;20309;-77
2023/10/06 15:46:04;;;;;;;1.65;1.10;;;20.10;99.90;;;;;;4994242;28;20289;-79
2023/10/06 15:48:33;;;;;;;2.05;0.65;;;20.10;99.90;;;;;;4994223;28;20226;-80
2023/10/06 15:51:01;;;;;;;3.38;1.02;;;20.00;99.90;;;;;;4993887;28;20210;-77
2023/10/06 15:53:28;;;;;;;2.15;1.10;;;20.10;99.90;;;;;;4992958;28;20290;-77
2023/10/06 15:55:57;;;;;;;1.63;0.80;;;20.10;99.90;;;;;;4993030;28;20293;-77
2023/10/06 15:58:24;;;;;;;2.53;1.02;;;20.20;99.90;;;;;;4993199;28;20329;-77
2023/10/06 16:00:51;;;;;;;4.07;1.30;;;20.20;99.90;;;;;;4993857;28;20289;-75
2023/10/06 16:03:19;;;;;;;3.88;1.10;;;20.20;99.90;;;;;;4993768;28;20290;-77
2023/10/06 16:05:48;;;;;;;4.10;1.00;;;20.20;99.90;;;;;;4993501;28;20289;-77
2023/10/06 16:08:15;;;;;;;4.53;0.95;;;20.20;99.90;;;;;;4993181;28;20226;-77
2023/10/06 16:10:43;;;;;;;1.58;0.70;;;20.10;99.90;;;;;;4992435;28;20256;-77
2023/10/06 16:13:10;;;;;;;2.58;1.15;;;20.10;99.90;;;;;;4987449;28;20241;-74
2023/10/06 16:15:42;;;;;;;2.50;0.98;;;20.10;99.90;;;;;;4993313;28;20249;-77
2023/10/06 16:18:10;;;;;;;2.95;1.10;;;19.90;99.90;;;;;;4993167;28;20691;-76
2023/10/06 16:20:37;;;;;;;1.83;0.85;;;19.80;99.90;;;;;;4993077;28;20245;-77
2023/10/06 16:23:06;;;;;;;3.47;0.90;;;19.90;99.90;;;;;;4993029;28;20285;-76
2023/10/06 16:25:35;;;;;;;4.82;0.93;;;19.80;99.90;;;;;;4995345;28;20567;-77
2023/10/06 16:28:04;;;;;;;2.47;1.10;;;19.60;99.90;;;;;;4993917;28;20230;-77
2023/10/06 16:30:31;;;;;;;3.13;1.08;;;19.60;99.90;;;;;;4993552;28;20206;-77
2023/10/06 16:32:58;;;;;;;1.90;1.15;;;19.50;99.90;;;;;;4994256;28;20305;-76
2023/10/06 16:35:25;;;;;;;2.28;1.00;;;19.50;99.90;;;;;;4992919;28;20246;-77
2023/10/06 16:37:53;;;;;;;2.08;0.95;;;19.30;99.90;;;;;;4992292;28;20722;-76
2023/10/06 16:40:21;;;;;;;3.58;1.45;;;19.30;99.90;;;;;;4992401;28;20251;-77
2023/10/06 16:42:48;;;;;;;3.22;1.13;;;19.30;99.90;;;;;;4993428;28;20293;-75
2023/10/06 16:45:15;;;;;;;3.58;1.08;;;19.20;99.90;;;;;;4993129;28;20294;-77
2023/10/06 16:47:42;;;;;;;3.03;1.08;;;19.20;99.90;;;;;;4992857;28;20313;-77
2023/10/06 16:50:09;;;;;;;3.92;1.83;;;19.20;99.90;;;;;;4992144;28;20214;-77
2023/10/06 16:52:37;;;;;;;2.78;1.50;;;19.20;99.90;;;;;;4992666;28;20289;-76
2023/10/06 16:55:05;;;;;;;5.72;2.00;;;19.00;99.90;;;;;;4992621;28;20642;-77
2023/10/06 16:57:34;;;;;;;5.32;1.60;;;18.90;99.90;;;;;;4991354;28;20324;-77
2023/10/06 17:00:04;;;;;;;3.83;1.30;;;18.90;99.90;;;;;;4992178;28;20559;-76
2023/10/06 17:02:31;;;;;;;4.25;1.55;;;18.80;99.90;;;;;;4992903;28;20206;-77
2023/10/06 17:05:00;;;;;;;3.38;1.20;;;18.80;99.90;;;;;;4992069;28;20202;-77
2023/10/06 17:07:27;;;;;;;3.50;1.40;;;18.70;99.90;;;;;;4989558;28;20238;-76
2023/10/06 17:09:54;;;;;;;2.70;1.30;;;18.60;99.90;;;;;;4991915;28;20234;-77
2023/10/06 17:12:21;;;;;;;4.35;1.40;;;18.50;99.90;;;;;;4992345;28;20699;-77
2023/10/06 17:14:52;;;;;;;2.20;1.25;;;18.60;99.90;;;;;;4989802;28;20265;-77
2023/10/06 17:17:22;;;;;;;3.08;1.60;;;18.40;99.90;;;;;;4991957;28;20218;-77
2023/10/06 17:19:49;;;;;;;4.47;1.33;;;18.40;99.90;;;;;;4989328;28;20253;-78
2023/10/06 17:22:17;;;;;;;3.03;1.30;;;18.30;99.90;;;;;;4993683;28;20228;-77
2023/10/06 17:24:44;;;;;;;3.33;1.50;;;18.30;99.90;;;;;;4995575;28;20285;-77
2023/10/06 17:27:14;;;;;;;8.30;1.50;;;18.20;99.90;;;;;;4995004;28;20285;-77
2023/10/06 17:29:41;;;;;;;1.75;1.08;;;18.10;99.90;;;;;;4995525;28;20198;-77
2023/10/06 17:32:10;;;;;;;2.05;1.15;;;18.00;99.90;;;;;;4996461;28;20242;-77
2023/10/06 17:34:37;;;;;;;2.47;1.25;;;17.90;99.90;;;;;;4996572;28;20237;-77
2023/10/06 17:37:04;;;;;;;4.20;1.40;;;17.70;99.90;;;;;;4995796;28;20246;-77
2023/10/06 17:39:31;;;;;;;4.32;1.50;;;17.70;99.90;;;;;;4996051;28;20242;-77
2023/10/06 17:41:58;;;;;;;5.40;1.40;;;17.60;99.90;;;;;;4995812;28;20354;-77
2023/10/06 17:44:25;;;;;;;2.75;1.10;;;17.60;99.90;;;;;;4995447;28;20245;-77
2023/10/06 17:46:53;;;;;;;3.30;1.38;;;17.50;99.90;;;;;;4995317;28;20285;-77
2023/10/06 17:49:21;;;;;;;2.83;1.23;;;17.40;99.90;;;;;;4994518;28;20210;-77
2023/10/06 17:51:48;;;;;;;2.88;1.10;;;17.40;99.90;;;;;;4995220;28;20269;-76
2023/10/06 17:54:15;;;;;;;3.22;1.10;;;17.30;99.90;;;;;;4995368;28;20242;-77
2023/10/06 17:56:42;;;;;;;2.47;1.38;;;17.30;99.90;;;;;;4993625;28;20619;-77
2023/10/06 17:59:15;;;;;;;3.00;1.20;;;17.20;99.90;;;;;;4990209;28;20325;-77
2023/10/06 18:01:42;;;;;;;3.17;0.93;;;17.10;99.90;;;;;;4994882;28;20206;-77
2023/10/06 18:04:09;;;;;;;4.33;1.30;;;17.10;99.90;;;;;;4994926;28;20241;-77
2023/10/06 18:06:37;;;;;;;2.27;1.30;;;17.00;99.90;;;;;;4995996;28;20210;-78
2023/10/06 18:09:04;;;;;;;2.80;1.20;;;17.00;99.90;;;;;;4995510;28;20318;-78
2023/10/06 18:11:31;;;;;;;2.67;1.47;;;16.90;99.90;;;;;;4995502;28;20206;-78
2023/10/06 18:13:58;;;;;;;5.03;1.30;;;16.90;99.90;;;;;;4995712;28;20301;-78
2023/10/06 18:16:26;;;;;;;3.43;1.10;;;16.80;99.90;;;;;;4995756;28;20242;-79
2023/10/06 18:18:52;;;;;;;4.53;1.73;;;16.80;99.90;;;;;;4995611;28;20241;-77
2023/10/06 18:21:19;;;;;;;5.13;1.90;;;16.90;99.90;;;;;;4995171;28;20305;-76
2023/10/06 18:23:48;;;;;;;4.67;1.60;;;16.80;99.90;;;;;;4995029;28;20238;-76
2023/10/06 18:26:18;;;;;;;3.93;1.30;;;16.80;99.90;;;;;;4994828;28;20293;-77
2023/10/06 18:28:45;;;;;;;3.37;1.37;;;16.70;99.90;;;;;;4995348;28;20250;-78
2023/10/06 18:31:13;;;;;;;3.57;1.37;;;16.70;99.90;;;;;;4995186;28;20705;-77
2023/10/06 18:33:41;;;;;;;3.97;1.60;;;16.60;99.90;;;;;;4994669;28;20333;-78
2023/10/06 18:36:10;;;;;;;3.67;1.40;;;16.60;99.90;;;;;;4995073;28;20667;-79
2023/10/06 18:38:37;;;;;;;2.33;1.13;;;16.50;99.90;;;;;;4994885;28;20489;-74
2023/10/06 18:41:06;;;;;;;8.00;1.37;;;16.50;99.90;;;;;;4989724;28;20221;-77
2023/10/06 18:43:34;;;;;;;3.13;1.30;;;16.40;99.90;;;;;;4988802;28;20256;-77
2023/10/06 18:46:00;;;;;;;2.13;1.13;;;16.40;99.90;;;;;;4987550;28;20238;-77
2023/10/06 18:48:27;;;;;;;7.37;1.43;;;16.30;99.90;;;;;;4988015;28;20262;-77
2023/10/06 18:50:55;;;;;;;2.33;1.33;;;16.20;99.90;;;;;;4994569;28;20281;-77
2023/10/06 18:53:22;;;;;;;3.40;1.40;;;16.20;99.90;;;;;;4985540;28;20297;-77
2023/10/06 18:55:53;;;;;;;2.80;1.40;;;16.10;99.90;;;;;;4991483;28;20293;-75
2023/10/06 18:58:21;;;;;;;2.80;1.20;;;16.10;99.90;;;;;;4988128;28;20230;-76
2023/10/06 19:00:49;;;;;;;2.83;1.43;;;16.20;99.90;;;;;;4993698;28;20237;-76
2023/10/06 19:03:17;;;;;;;2.80;1.57;;;16.10;99.90;;;;;;4982622;28;20203;-76
2023/10/06 19:05:46;;;;;;;4.00;1.20;;;16.00;99.90;;;;;;4992177;28;20277;-74
2023/10/06 19:08:14;;;;;;;2.73;1.00;;;16.00;99.90;;;;;;4992044;28;20246;-76
2023/10/06 19:10:45;;;;;;;7.63;1.30;;;16.10;99.90;;;;;;4991776;28;20238;-77
2023/10/06 19:13:13;;;;;;;3.17;1.20;;;16.20;99.90;;;;;;4990618;28;20622;-76
2023/10/06 19:15:43;;;;;;;4.10;1.27;;;16.20;99.90;;;;;;4988900;28;20266;-76
2023/10/06 19:18:10;;;;;;;3.17;1.10;;;16.30;99.90;;;;;;4993318;28;20614;-74
2023/10/06 19:20:38;;;;;;;3.60;1.00;;;16.20;99.90;;;;;;4989551;28;20293;-74
2023/10/06 19:23:09;;;;;;;4.70;1.53;;;16.30;99.90;;;;;;4988881;28;20199;-76
2023/10/06 19:25:41;;;;;;;6.23;1.23;;;16.30;99.90;;;;;;4985936;28;20211;-75
2023/10/06 19:28:10;;;;;;;2.60;1.20;;;16.20;99.90;;;;;;4989933;28;20248;-77
2023/10/06 19:30:37;;;;;;;3.93;1.27;;;16.20;99.90;;;;;;4986556;28;20210;-76
2023/10/06 19:33:06;;;;;;;5.00;1.40;;;16.20;99.90;;;;;;4993763;28;20233;-76
2023/10/06 19:35:38;;;;;;;4.13;1.20;;;16.20;99.90;;;;;;4987577;28;20293;-76
2023/10/06 19:38:05;;;;;;;3.97;1.10;;;16.20;99.90;;;;;;4986970;28;20230;-75
2023/10/06 19:40:32;;;;;;;3.07;1.80;;;16.10;99.90;;;;;;4986381;28;20289;-74
2023/10/06 19:42:59;;;;;;;3.23;1.00;;;16.10;99.90;;;;;;4991899;28;20298;-76
2023/10/06 19:45:26;;;;;;;6.27;1.10;;;16.10;99.90;;;;;;4988407;28;20238;-75
2023/10/06 19:47:53;;;;;;;5.30;1.23;;;16.10;99.90;;;;;;4978355;28;20254;-75
2023/10/06 19:50:22;;;;;;;3.77;1.13;;;16.10;99.90;;;;;;4988461;28;20203;-75
2023/10/06 19:52:50;;;;;;;4.37;1.80;;;16.00;99.90;;;;;;4990784;28;20559;-74
2023/10/06 19:55:17;;;;;;;2.70;1.03;;;16.00;99.90;;;;;;4986262;28;20615;-76
2023/10/06 19:57:44;;;;;;;1.83;1.20;;;16.00;99.90;;;;;;4989756;28;20228;-76
2023/10/06 20:00:12;;;;;;;3.23;1.40;;;16.00;99.90;;;;;;4984174;28;20325;-75
2023/10/06 20:02:40;;;;;;;2.90;1.13;;;15.90;99.90;;;;;;4989230;28;20720;-77
2023/10/06 20:05:09;;;;;;;2.70;1.00;;;15.90;99.90;;;;;;4991262;28;20212;-77
2023/10/06 20:07:37;;;;;;;2.37;0.77;;;15.90;99.90;;;;;;4986858;28;20238;-77
2023/10/06 20:10:05;;;;;;;3.03;1.00;;;15.90;99.90;;;;;;4989331;28;20305;-76
2023/10/06 20:12:32;;;;;;;2.40;0.90;;;15.90;99.90;;;;;;4986068;28;20742;-75
2023/10/06 20:15:02;;;;;;;2.40;1.37;;;15.90;99.90;;;;;;4992909;28;20651;-78
2023/10/06 20:17:30;;;;;;;3.30;1.17;;;15.90;99.90;;;;;;4985689;28;20222;-74
2023/10/06 20:19:57;;;;;;;3.90;1.27;;;15.90;99.90;;;;;;4992775;28;20237;-73
